Brownsville, TX

6:27 PM CST on December 27, 2014 (GMT -0600)
Brownsville-South Padre I International | Change Station
CLOSE
Current Station
Airport
Location: Brownsville,
Elevation: 20 ft
Nearby Weather Stations

Elev 20 ft 25.91 °N, 97.42 °W | Updated 11 minutes ago

Overcast
Overcast
74 °F
Feels Like 74 °F
N
7
Wind Variable Wind from SSE

Today
High -- | Low -- °F
--% Chance of Precip.
Yesterday
High -- | Low -- °F
Precip. -- in
7:15 AM 5:47 PM
Waxing Crescent, 41% visible
Pressure 29.98 in
Visibility 7.0 miles
Clouds Mostly Cloudy 1300 ft
Mostly Cloudy 3600 ft
Overcast 4700 ft
Dew Point 69 °F
Humidity 85%
Rainfall 0.00 in
Snow Depth Not available.
UV 0 out of 12
Pollen 9.60 out of 12
Air Quality Not available.
Flu Activity Not available.
SPECI KBRO 280016Z 16006KT 7SM BKN013 BKN036 OVC047 23/21 A2998 RMK AO2 T02330206 $

More Conditions Fewer Conditions

Pressure 29.98 in
Visibility 7.0 miles
Clouds Mostly Cloudy 1300 ft
Mostly Cloudy 3600 ft
Overcast 4700 ft
Dew Point 69 °F
Humidity 85%
Rainfall 0.00 in
Snow Depth Not available.
UV 0 out of 12
Pollen 9.60 out of 12
Air Quality Not available.
Flu Activity Not available.
SPECI KBRO 280016Z 16006KT 7SM BKN013 BKN036 OVC047 23/21 A2998 RMK AO2 T02330206 $

More Conditions Fewer Conditions

Nowcast | as of 5:59 PM CST on December 27, 2014

Through 8 PM...isolated to scattered showers will develop and move across much of deep south Texas and the Rio Grande Valley ahead of an approaching cold front. Precipitation will be mainly light with locally moderate downpours possible. Amounts will generally be under a tenth of an inch.

×

10-Day Weather Forecast

Almanac

Astronomy

Dec. 27, 2014 Rise Set
Actual Time
Civil Twilight
Nautical Twilight
Astronomical Twilight
Moon
Length of Visible Light
Length of Day
Tomorrow will be .
, % of the Moon is Illuminated

Today's Extremes

State Highs State Lows

Community

WunderPhotos

Upload Photos

1,781,116 photos uploaded!

WunderBlogs® & News

Nearby

Air Quality

  Air Quality AQ Index Pollutant
Not available.

Snow Depth

Station Depth Elevation

Earthquake Activity

City Distance Mag. Time & Date
Minimum magnitude displayed is 2.5.

Coastal Water Temperatures

Place Temperature

Nearby Weather Stations